Time;durP1;ratioP1;P1;durP2;ratioP2;P2;SDS_P1;SDS_P2;PMS_P1;PMS_P2;Temp;Humidity;BMP_temperature;BMP_pressure;BME280_temperature;BME280_humidity;BME280_pressure;Samples;Min_cycle;Max_cycle;Signal;HPM_P1;HPM_P2
2022/06/12 00:01:16;;;;;;;11.10;7.78;;;;;;;11.75;70.53;97776.20;1703515;84;25766;-77
2022/06/12 00:03:43;;;;;;;12.10;7.30;;;;;;;11.74;70.57;97778.55;1703000;84;27541;-75
2022/06/12 00:06:10;;;;;;;15.20;7.10;;;;;;;11.70;70.53;97777.33;1703230;84;25769;-76
2022/06/12 00:08:39;;;;;;;14.07;8.28;;;;;;;11.66;70.55;97772.54;1703365;84;25821;-75
2022/06/12 00:11:09;;;;;;;15.23;8.45;;;;;;;11.61;70.58;97773.16;1703127;84;25856;-74
2022/06/12 00:13:44;;;;;;;12.33;8.28;;;;;;;11.57;70.69;97771.92;1703120;84;25976;-75
2022/06/12 00:16:13;;;;;;;14.05;8.73;;;;;;;11.51;70.73;97768.69;1647261;87;27467;-73
2022/06/12 00:18:40;;;;;;;10.48;7.60;;;;;;;11.46;70.85;97759.87;1647362;87;25858;-75
2022/06/12 00:21:11;;;;;;;10.20;7.50;;;;;;;11.41;70.97;97761.52;1647462;87;25793;-74
2022/06/12 00:23:52;;;;;;;10.98;7.75;;;;;;;11.40;71.09;97759.86;1647512;87;26019;-75
2022/06/12 00:26:29;;;;;;;10.15;7.83;;;;;;;11.37;71.04;97755.69;1647338;87;25439;-75
2022/06/12 00:29:00;;;;;;;9.38;7.47;;;;;;;11.32;71.04;97756.85;1621980;88;27418;-77
2022/06/12 00:31:29;;;;;;;8.45;7.60;;;;;;;11.20;71.01;97759.86;1540485;92;26015;-75
2022/06/12 00:33:56;;;;;;;11.40;7.58;;;;;;;11.19;71.26;97756.33;1543486;92;25829;-78
2022/06/12 00:36:23;;;;;;;10.30;7.08;;;;;;;11.20;71.36;97750.41;1543478;92;25794;-74
2022/06/12 00:38:50;;;;;;;12.60;8.03;;;;;;;11.18;71.38;97753.30;1543584;92;25746;-75
2022/06/12 00:41:18;;;;;;;17.50;7.42;;;;;;;11.17;71.41;97748.94;1543456;92;27528;-75
2022/06/12 00:43:45;;;;;;;12.35;6.78;;;;;;;11.16;71.41;97741.03;1543574;92;25854;-75
2022/06/12 00:46:49;;;;;;;12.35;6.97;;;;;;;11.13;71.41;97740.92;1543486;92;25947;-75
2022/06/12 00:49:24;;;;;;;8.93;6.67;;;;;;;11.12;71.43;97742.47;1543336;92;25807;-76
2022/06/12 00:51:59;;;;;;;11.85;7.05;;;;;;;11.09;71.46;97742.91;1542820;92;25861;-77
2022/06/12 00:54:26;;;;;;;11.03;6.67;;;;;;;11.06;71.44;97739.27;1561036;91;27429;-74
2022/06/12 00:56:57;;;;;;;10.32;7.08;;;;;;;10.98;71.38;97738.95;1568192;91;25664;-78
2022/06/12 00:59:41;;;;;;;14.00;7.20;;;;;;;10.93;71.46;97748.18;1548083;91;25758;-75
2022/06/12 01:02:12;;;;;;;12.35;6.45;;;;;;;10.90;71.61;97739.13;1565320;91;25749;-76
2022/06/12 01:07:29;;;;;;;7.17;6.22;;;;;;;10.78;71.59;97735.37;1567959;91;27465;-74
2022/06/12 01:10:01;;;;;;;8.88;6.83;;;;;;;10.77;71.65;97740.45;1568214;91;25876;-78
2022/06/12 01:12:32;;;;;;;10.85;7.30;;;;;;;10.75;71.71;97743.87;1568220;91;25856;-77
2022/06/12 01:15:10;;;;;;;10.95;7.00;;;;;;;10.73;71.74;97745.97;1568198;91;25531;-77
2022/06/12 01:17:39;;;;;;;12.58;6.97;;;;;;;10.70;71.75;97736.91;1538324;93;25892;-78
2022/06/12 01:20:11;;;;;;;11.25;7.28;;;;;;;10.67;71.77;97738.15;1536822;92;27557;-77
2022/06/12 01:22:50;;;;;;;;;;;;;;;10.64;71.75;97734.50;1539045;93;25864;-74
2022/06/12 01:25:36;;;;;;;7.03;6.30;;;;;;;10.56;71.91;97729.30;1522690;93;26386;-74
2022/06/12 01:28:47;;;;;;;15.18;7.17;;;;;;;10.46;71.93;97736.95;1537768;93;25897;-75
2022/06/12 01:31:21;;;;;;;8.93;6.30;;;;;;;10.44;72.04;97735.80;1537842;93;25819;-77
2022/06/12 01:34:26;;;;;;;10.58;5.60;;;;;;;10.44;72.08;97740.36;1543154;89;27498;-77
2022/06/12 01:37:06;;;;;;;9.48;6.35;;;;;;;10.39;72.08;97739.61;1604849;89;26472;-74
2022/06/12 01:40:15;;;;;;;6.97;5.83;;;;;;;10.34;72.23;97736.70;1601801;89;26000;-74
2022/06/12 01:43:11;;;;;;;11.80;6.90;;;;;;;10.30;72.34;97733.25;1605031;89;25743;-75
2022/06/12 01:46:11;;;;;;;9.58;6.55;;;;;;;10.24;72.57;97743.00;1603323;89;25824;-75
2022/06/12 01:49:27;;;;;;;9.20;6.60;;;;;;;10.21;72.76;97742.04;1637360;85;27379;-75
2022/06/12 01:52:29;;;;;;;12.07;5.78;;;;;;;10.21;72.75;97735.81;1670154;85;25863;-75
2022/06/12 01:55:18;;;;;;;7.07;5.50;;;;;;;10.19;72.83;97744.09;1613904;88;26846;-74
2022/06/12 01:58:14;;;;;;;7.78;5.67;;;;;;;10.14;72.83;97743.86;1610448;88;26151;-75
2022/06/12 02:00:45;;;;;;;7.25;5.83;;;;;;;10.11;72.81;97745.08;1614090;88;25845;-75
2022/06/12 02:03:28;;;;;;;8.25;5.67;;;;;;;10.11;72.80;97741.03;1581746;90;27567;-75
2022/06/12 02:06:09;;;;;;;9.68;6.90;;;;;;;10.10;72.71;97739.88;1560632;91;25778;-75
2022/06/12 02:08:47;;;;;;;8.08;6.67;;;;;;;10.04;72.70;97748.76;1583591;90;25437;-75
2022/06/12 02:14:13;;;;;;;11.38;6.30;;;;;;;9.93;72.89;97752.02;1594544;88;25785;-75
2022/06/12 02:16:45;;;;;;;9.10;6.35;;;;;;;9.94;73.07;97748.30;1620145;88;27411;-75
2022/06/12 02:19:20;;;;;;;7.50;6.20;;;;;;;9.95;73.04;97749.45;1620488;88;25787;-74
2022/06/12 02:22:10;;;;;;;9.78;6.00;;;;;;;9.94;73.04;97741.03;1620243;88;26600;-79
2022/06/12 02:24:42;;;;;;;10.23;6.17;;;;;;;9.92;73.01;97745.80;1567499;91;26103;-78
2022/06/12 02:27:14;;;;;;;7.22;5.72;;;;;;;9.92;73.11;97750.34;1556827;92;25896;-75
2022/06/12 02:29:46;;;;;;;11.30;5.85;;;;;;;9.93;73.06;97742.58;1512774;94;27398;-75
2022/06/12 02:32:33;;;;;;;11.55;6.30;;;;;;;9.92;73.19;97751.70;1515508;93;33359;-77
2022/06/12 02:35:16;;;;;;;8.83;6.58;;;;;;;9.90;73.17;97745.16;1537104;93;25833;-75
2022/06/12 02:37:54;;;;;;;14.87;6.25;;;;;;;9.88;73.15;97758.54;1537148;93;25933;-75
2022/06/12 02:40:34;;;;;;;7.83;5.95;;;;;;;9.87;73.16;97746.09;1517856;93;25873;-75
2022/06/12 02:43:09;;;;;;;7.60;5.30;;;;;;;9.86;73.12;97750.65;1544608;91;28096;-75
2022/06/12 02:45:41;;;;;;;7.45;5.65;;;;;;;9.85;73.15;97754.88;1562558;91;25625;-76
2022/06/12 02:48:08;;;;;;;5.78;5.10;;;;;;;9.85;73.24;97759.77;1562669;91;25846;-78
2022/06/12 02:50:43;;;;;;;10.00;5.90;;;;;;;9.87;73.23;97762.27;1562672;91;25799;-76
2022/06/12 02:53:29;;;;;;;8.18;5.58;;;;;;;9.87;73.26;97755.52;1514162;94;26560;-77
2022/06/12 02:56:10;;;;;;;7.92;5.72;;;;;;;9.86;73.23;97765.99;1511092;94;28228;-77
2022/06/12 02:58:57;;;;;;;8.10;5.35;;;;;;;9.84;73.27;97758.61;1510151;94;25364;-74
2022/06/12 03:01:50;;;;;;;5.97;5.37;;;;;;;9.83;73.40;97759.64;1514814;93;25902;-75
2022/06/12 03:04:34;;;;;;;10.35;5.70;;;;;;;9.83;73.42;97758.29;1514724;93;26306;-74
2022/06/12 03:07:01;;;;;;;9.73;6.17;;;;;;;9.81;73.57;97757.65;1495479;94;25916;-75
2022/06/12 03:09:27;;;;;;;10.43;5.75;;;;;;;9.82;73.65;97753.92;1491085;96;28227;-75
2022/06/12 03:11:55;;;;;;;8.78;5.40;;;;;;;9.81;73.62;97756.30;1493641;95;25859;-74
2022/06/12 03:14:24;;;;;;;9.28;6.00;;;;;;;9.81;73.64;97750.91;1496916;95;25454;-76
2022/06/12 03:16:50;;;;;;;6.87;5.67;;;;;;;9.77;73.62;97751.01;1496937;95;25984;-75
2022/06/12 03:19:24;;;;;;;8.13;5.60;;;;;;;9.75;73.67;97749.34;1497105;95;25885;-75
2022/06/12 03:22:20;;;;;;;6.62;5.78;;;;;;;9.74;73.74;97755.76;1496943;95;27495;-78
2022/06/12 03:25:08;;;;;;;11.20;6.12;;;;;;;9.75;73.78;97756.08;1497597;95;26022;-76
2022/06/12 03:27:55;;;;;;;11.78;5.78;;;;;;;9.75;73.84;97758.77;1501162;95;25981;-76
2022/06/12 03:30:47;;;;;;;6.08;5.47;;;;;;;9.75;73.93;97757.43;1614707;87;26304;-75
2022/06/12 03:33:22;;;;;;;6.45;5.50;;;;;;;9.74;73.96;97752.23;1645696;87;25721;-76
2022/06/12 03:36:06;;;;;;;7.33;5.97;;;;;;;9.75;74.05;97752.55;1642269;87;27406;-74
2022/06/12 03:38:52;;;;;;;7.03;6.08;;;;;;;9.75;74.08;97748.50;1712121;80;25849;-76
2022/06/12 03:41:35;;;;;;;7.83;6.30;;;;;;;9.74;74.11;97747.67;1792657;80;25667;-75
2022/06/12 03:44:14;;;;;;;8.95;6.42;;;;;;;9.76;74.23;97751.52;1787551;80;26242;-77
2022/06/12 03:46:52;;;;;;;7.90;6.28;;;;;;;9.78;74.33;97751.33;1695252;84;25812;-74
2022/06/12 03:49:32;;;;;;;11.90;5.85;;;;;;;9.79;74.44;97756.49;1695255;84;27624;-74
2022/06/12 03:52:25;;;;;;;6.90;6.03;;;;;;;9.84;74.57;97762.66;1638556;87;25789;-77
2022/06/12 03:55:15;;;;;;;9.58;5.87;;;;;;;9.87;74.62;97761.75;1587431;90;25858;-77
2022/06/12 03:57:52;;;;;;;7.05;5.58;;;;;;;9.91;74.75;97760.81;1587144;90;25829;-75
2022/06/12 04:00:41;;;;;;;8.73;6.33;;;;;;;9.93;74.80;97760.11;1585294;90;25768;-77
2022/06/12 04:03:31;;;;;;;11.63;6.72;;;;;;;9.97;74.85;97760.04;1587296;90;28150;-74
2022/06/12 04:06:02;;;;;;;11.55;6.50;;;;;;;10.00;74.95;97756.95;1559628;91;25825;-77
2022/06/12 04:08:44;;;;;;;11.90;6.00;;;;;;;10.03;74.99;97760.06;1522806;94;25919;-73
2022/06/12 04:11:13;;;;;;;7.78;6.37;;;;;;;10.08;75.04;97767.56;1544243;92;26189;-75
2022/06/12 04:13:42;;;;;;;12.63;7.10;;;;;;;10.11;75.08;97765.83;1547433;92;25932;-75
2022/06/12 04:16:32;;;;;;;10.72;6.92;;;;;;;10.16;75.04;97766.55;1547546;92;26870;-76
2022/06/12 04:19:03;;;;;;;12.63;6.53;;;;;;;10.19;75.10;97755.41;1497236;94;25923;-75
2022/06/12 04:21:41;;;;;;;11.83;6.70;;;;;;;10.22;75.15;97763.11;1497397;94;25891;-75
2022/06/12 04:24:27;;;;;;;9.98;7.55;;;;;;;10.25;75.19;97760.02;1499037;94;25882;-77
2022/06/12 04:27:02;;;;;;;9.88;6.95;;;;;;;10.30;75.25;97764.28;1460542;97;25922;-74
2022/06/12 04:29:34;;;;;;;11.03;6.50;;;;;;;10.35;75.40;97764.00;1453627;97;29171;-77
2022/06/12 04:32:04;;;;;;;8.70;6.80;;;;;;;10.42;75.52;97766.72;1453553;97;25827;-77
2022/06/12 04:34:39;;;;;;;10.03;7.12;;;;;;;10.49;75.52;97773.51;1467545;96;25863;-77
2022/06/12 04:37:14;;;;;;;9.70;7.03;;;;;;;10.55;75.71;97773.52;1427500;99;25853;-74
2022/06/12 04:39:42;;;;;;;9.03;6.62;;;;;;;10.59;75.92;97773.95;1432560;100;26125;-75
2022/06/12 04:42:09;;;;;;;13.35;7.60;;;;;;;10.64;75.99;97779.56;1449699;98;27441;-73
2022/06/12 04:44:37;;;;;;;14.83;7.78;;;;;;;10.71;75.94;97779.08;1464506;96;26544;-74
2022/06/12 04:47:05;;;;;;;11.83;7.22;;;;;;;10.79;75.90;97776.19;1450117;98;25399;-77
2022/06/12 04:49:36;;;;;;;9.43;7.30;;;;;;;10.88;76.05;97776.83;1466347;96;25942;-75
2022/06/12 04:52:06;;;;;;;10.45;7.25;;;;;;;10.96;76.23;97776.14;1449955;98;26480;-73
2022/06/12 04:54:34;;;;;;;11.08;7.20;;;;;;;11.04;76.29;97776.45;1469510;95;27515;-75
2022/06/12 04:57:02;;;;;;;7.87;6.67;;;;;;;11.10;76.09;97779.19;1522873;94;26211;-75
2022/06/12 04:59:29;;;;;;;9.48;6.67;;;;;;;11.17;75.99;97778.66;1525271;94;25642;-76
2022/06/12 05:01:57;;;;;;;6.78;6.08;;;;;;;11.25;75.99;97778.13;1574523;91;26262;-74
2022/06/12 05:04:26;;;;;;;11.22;7.10;;;;;;;11.31;76.02;97775.45;1586698;89;25358;-74
2022/06/12 05:06:52;;;;;;;8.40;7.28;;;;;;;11.40;75.94;97772.02;1598362;88;27423;-75
2022/06/12 05:09:24;;;;;;;10.72;7.08;;;;;;;11.47;75.85;97772.87;1624367;88;25790;-73
2022/06/12 05:11:52;;;;;;;10.10;7.42;;;;;;;11.55;75.75;97776.70;1624776;88;25863;-74
2022/06/12 05:14:19;;;;;;;11.25;6.97;;;;;;;11.62;75.92;97773.47;1645141;86;25876;-75
2022/06/12 05:16:54;;;;;;;8.75;7.45;;;;;;;11.70;76.07;97771.09;1667514;86;26551;-74
2022/06/12 05:19:26;;;;;;;9.25;7.30;;;;;;;11.78;76.16;97768.19;1567759;91;28823;-74
2022/06/12 05:21:53;;;;;;;12.70;9.48;;;;;;;11.87;76.22;97778.57;1614006;87;25945;-75
2022/06/12 05:24:19;;;;;;;14.40;8.80;;;;;;;11.94;76.34;97766.92;1633993;87;26764;-75
2022/06/12 05:26:49;;;;;;;9.38;8.38;;;;;;;12.00;76.32;97765.55;1630588;87;25823;-74
2022/06/12 05:29:26;;;;;;;9.55;7.97;;;;;;;12.08;76.20;97766.66;1656855;86;25838;-74
2022/06/12 05:31:53;;;;;;;11.35;8.35;;;;;;;12.16;76.16;97759.69;1599860;89;27529;-74
2022/06/12 05:34:21;;;;;;;10.63;7.80;;;;;;;12.24;76.19;97759.96;1580480;90;25876;-78
2022/06/12 05:36:48;;;;;;;10.90;7.30;;;;;;;12.33;76.21;97763.25;1567649;90;25893;-75
2022/06/12 05:39:15;;;;;;;7.45;6.72;;;;;;;12.42;76.29;97761.47;1569230;91;26055;-74
2022/06/12 05:41:42;;;;;;;9.80;7.15;;;;;;;12.50;76.15;97761.22;1569025;91;25843;-77
2022/06/12 05:44:09;;;;;;;6.55;5.80;;;;;;;12.58;76.09;97759.61;1569136;91;27409;-77
2022/06/12 05:46:35;;;;;;;7.35;6.40;;;;;;;12.67;75.94;97761.58;1568933;90;25837;-77
2022/06/12 05:49:03;;;;;;;7.00;5.90;;;;;;;12.77;75.73;97759.75;1569143;91;25944;-75
2022/06/12 05:51:30;;;;;;;6.83;5.95;;;;;;;12.86;75.56;97761.15;1569047;91;25851;-74
2022/06/12 05:53:56;;;;;;;7.05;5.33;;;;;;;12.94;75.40;97759.00;1569093;91;25802;-76
2022/06/12 05:56:25;;;;;;;9.55;6.40;;;;;;;13.06;75.44;97762.38;1569136;90;27401;-74
2022/06/12 05:58:52;;;;;;;7.42;6.33;;;;;;;13.17;75.42;97764.41;1568801;91;25336;-75
2022/06/12 06:01:20;;;;;;;10.65;6.58;;;;;;;13.27;75.38;97761.55;1568938;90;25835;-76
2022/06/12 06:03:48;;;;;;;7.85;5.45;;;;;;;13.40;75.30;97761.14;1568821;91;26348;-74
2022/06/12 06:06:22;;;;;;;9.03;5.47;;;;;;;13.50;75.05;97765.55;1569095;91;25785;-73
2022/06/12 06:08:51;;;;;;;7.37;5.33;;;;;;;13.63;75.01;97762.72;1541588;91;27447;-76
2022/06/12 06:11:18;;;;;;;8.13;5.62;;;;;;;13.78;74.87;97765.06;1559257;91;25795;-75
2022/06/12 06:13:46;;;;;;;7.20;6.00;;;;;;;13.92;74.72;97763.38;1559739;91;25825;-78
2022/06/12 06:16:13;;;;;;;15.95;5.90;;;;;;;14.10;74.98;97769.36;1570074;89;26219;-73
2022/06/12 06:18:40;;;;;;;10.05;6.10;;;;;;;14.29;74.77;97757.45;1643335;87;25825;-74
2022/06/12 06:21:08;;;;;;;8.70;5.62;;;;;;;14.47;74.62;97753.94;1624991;88;27435;-73
2022/06/12 06:23:36;;;;;;;6.55;5.20;;;;;;;14.63;74.43;97756.02;1624840;88;25933;-74
2022/06/12 06:26:03;;;;;;;7.72;5.35;;;;;;;14.77;74.19;97751.23;1624442;88;25782;-73
2022/06/12 06:28:29;;;;;;;8.55;5.28;;;;;;;14.94;73.98;97757.70;1624630;88;25835;-74
2022/06/12 06:30:57;;;;;;;8.45;4.75;;;;;;;15.09;73.69;97753.22;1624913;88;26093;-74
2022/06/12 06:33:24;;;;;;;8.65;5.15;;;;;;;15.22;73.35;97747.55;1624703;88;27499;-73
2022/06/12 06:35:51;;;;;;;8.28;5.37;;;;;;;15.36;73.01;97750.37;1624709;88;25861;-73
2022/06/12 06:38:19;;;;;;;6.17;5.35;;;;;;;15.52;73.22;97748.04;1624653;88;25747;-74
2022/06/12 06:40:46;;;;;;;6.67;5.35;;;;;;;15.65;72.85;97747.32;1624821;88;25847;-74
2022/06/12 06:43:13;;;;;;;6.60;5.72;;;;;;;15.78;72.64;97751.71;1630975;85;25338;-76
2022/06/12 06:48:27;;;;;;;5.92;5.12;;;;;;;15.94;72.19;97750.19;1678338;84;25882;-73
2022/06/12 06:50:54;;;;;;;6.65;5.10;;;;;;;16.00;71.77;97751.41;1680002;84;25904;-73
2022/06/12 06:53:20;;;;;;;7.12;4.75;;;;;;;16.07;71.55;97749.91;1686978;84;26118;-77
2022/06/12 06:55:49;;;;;;;8.65;5.17;;;;;;;16.15;71.39;97749.04;1686959;85;25806;-72
2022/06/12 06:58:20;;;;;;;5.40;3.87;;;;;;;16.28;71.47;97737.59;1687368;85;27575;-74
2022/06/12 07:00:49;;;;;;;8.50;4.40;;;;;;;16.38;70.83;97750.06;1687014;85;25832;-73
2022/06/12 07:03:16;;;;;;;5.97;4.67;;;;;;;16.51;71.05;97749.27;1687074;85;25861;-77
2022/06/12 07:05:45;;;;;;;6.83;4.72;;;;;;;16.68;70.74;97753.45;1728915;81;25837;-76
2022/06/12 07:08:13;;;;;;;7.42;4.55;;;;;;;16.83;70.53;97747.47;1764056;81;26412;-74
2022/06/12 07:10:40;;;;;;;4.80;4.30;;;;;;;16.96;70.08;97746.36;1764011;80;28025;-76
2022/06/12 07:13:07;;;;;;;6.65;4.58;;;;;;;17.06;69.98;97750.10;1763876;81;25761;-74
2022/06/12 07:15:36;;;;;;;8.65;4.70;;;;;;;17.20;69.92;97746.54;1763914;81;25812;-76
2022/06/12 07:18:04;;;;;;;6.55;4.83;;;;;;;17.31;69.43;97749.73;1763872;80;26290;-77
2022/06/12 07:20:36;;;;;;;5.25;4.75;;;;;;;17.43;69.24;97748.30;1764038;81;25745;-73
2022/06/12 07:23:05;;;;;;;7.40;4.60;;;;;;;17.54;69.31;97745.50;1763896;80;28354;-75
2022/06/12 07:25:37;;;;;;;4.95;4.45;;;;;;;17.64;68.79;97742.14;1761574;81;25916;-78
2022/06/12 07:28:04;;;;;;;6.30;4.75;;;;;;;17.74;68.63;97737.41;1768344;80;25669;-75
2022/06/12 07:30:30;;;;;;;8.78;4.42;;;;;;;17.83;68.28;97731.27;1793588;79;25685;-76
2022/06/12 07:32:57;;;;;;;5.75;3.72;;;;;;;17.95;68.04;97729.80;1793590;79;25822;-80
2022/06/12 07:35:23;;;;;;;9.20;3.90;;;;;;;18.09;68.05;97732.48;1793580;79;27576;-76
2022/06/12 07:37:50;;;;;;;6.15;3.65;;;;;;;18.18;67.54;97730.96;1793573;79;25727;-75
2022/06/12 07:40:25;;;;;;;5.72;3.22;;;;;;;18.32;67.43;97724.05;1793106;80;25725;-75
2022/06/12 07:42:52;;;;;;;6.03;3.55;;;;;;;18.50;67.66;97728.91;1793431;79;25959;-76
2022/06/12 07:45:19;;;;;;;7.50;3.90;;;;;;;18.66;67.56;97718.48;1793512;79;25736;-77
2022/06/12 07:47:46;;;;;;;5.83;3.52;;;;;;;18.84;67.44;97719.50;1793396;79;27375;-77
2022/06/12 07:50:15;;;;;;;7.35;3.80;;;;;;;18.96;67.02;97715.25;1793306;79;25787;-76
2022/06/12 07:52:42;;;;;;;4.47;3.50;;;;;;;19.08;66.72;97710.45;1793296;79;25740;-79
2022/06/12 07:55:13;;;;;;;9.78;3.77;;;;;;;19.25;66.55;97715.83;1793342;79;26664;-77
2022/06/12 07:57:40;;;;;;;6.30;3.20;;;;;;;19.43;65.94;97714.10;1793546;79;25767;-81
2022/06/12 08:00:10;;;;;;;6.87;3.33;;;;;;;19.70;65.46;97709.41;1793530;79;27365;-77
2022/06/12 08:02:37;;;;;;;3.98;2.95;;;;;;;20.08;64.23;97702.82;1793353;79;25735;-76
2022/06/12 08:05:05;;;;;;;4.92;3.08;;;;;;;20.43;64.04;97700.02;1793491;79;25708;-78
2022/06/12 08:07:31;;;;;;;7.30;3.33;;;;;;;20.84;63.86;97705.12;1793406;79;26169;-76
2022/06/12 08:09:58;;;;;;;4.10;2.30;;;;;;;21.39;63.62;97708.53;1793344;79;25881;-77
2022/06/12 08:12:25;;;;;;;3.80;2.35;;;;;;;21.83;62.20;97686.84;1793468;79;27609;-81
2022/06/12 08:14:53;;;;;;;4.67;2.60;;;;;;;22.42;61.08;97701.86;1793392;79;25744;-76
2022/06/12 08:17:19;;;;;;;3.40;2.20;;;;;;;22.86;60.68;97691.78;1793431;79;26426;-77
2022/06/12 08:22:33;;;;;;;8.20;2.20;;;;;;;23.57;57.95;97695.47;1793444;79;25708;-76
2022/06/12 08:25:00;;;;;;;5.83;2.27;;;;;;;23.91;57.91;97696.81;1793460;79;27570;-81
2022/06/12 08:27:26;;;;;;;4.03;2.17;;;;;;;24.25;56.78;97693.22;1794126;79;25735;-81
2022/06/12 08:29:53;;;;;;;6.17;2.40;;;;;;;24.54;56.20;97694.53;1795368;79;25712;-79
2022/06/12 08:32:21;;;;;;;2.60;1.52;;;;;;;24.84;56.17;97689.20;1795511;79;25640;-77
2022/06/12 08:34:53;;;;;;;2.40;1.37;;;;;;;25.12;55.80;97693.22;1795284;79;25728;-76
2022/06/12 08:37:31;;;;;;;3.27;1.80;;;;;;;25.36;54.20;97690.38;1791983;79;28015;-79
2022/06/12 08:39:59;;;;;;;4.12;1.65;;;;;;;25.76;53.94;97695.03;1794884;79;26425;-76
2022/06/12 08:42:43;;;;;;;2.65;1.30;;;;;;;26.18;53.23;97687.92;1795275;79;25680;-76
2022/06/12 08:45:27;;;;;;;4.30;1.45;;;;;;;26.59;51.87;97687.14;1790742;79;26203;-78
2022/06/12 08:48:02;;;;;;;1.75;1.15;;;;;;;27.03;51.81;97689.30;1732630;82;25805;-79
2022/06/12 08:50:58;;;;;;;3.30;1.12;;;;;;;27.44;50.32;97683.63;1732663;82;27368;-80
2022/06/12 08:53:59;;;;;;;1.67;1.05;;;;;;;27.73;49.54;97686.57;1732572;82;25806;-75
2022/06/12 08:56:47;;;;;;;1.92;1.10;;;;;;;27.98;47.95;97683.72;1732532;82;25702;-79
2022/06/12 08:59:38;;;;;;;2.83;1.20;;;;;;;28.29;47.69;97679.83;1638518;87;25751;-77
2022/06/12 09:02:10;;;;;;;2.70;1.32;;;;;;;28.59;46.33;97676.77;1650194;86;25923;-76
2022/06/12 09:04:36;;;;;;;1.22;0.90;;;;;;;28.92;46.08;97671.66;1644369;86;26967;-77
2022/06/12 09:07:28;;;;;;;1.10;0.93;;;;;;;29.20;45.17;97683.89;1649905;86;25468;-80
2022/06/12 09:10:06;;;;;;;2.72;1.10;;;;;;;29.25;43.89;97673.41;1646893;86;25753;-79
2022/06/12 09:12:50;;;;;;;2.67;1.45;;;;;;;29.48;43.89;97680.23;1646809;86;26221;-77
2022/06/12 09:16:05;;;;;;;1.52;1.00;;;;;;;29.73;43.07;97679.41;1649996;86;25768;-76
2022/06/12 09:18:48;;;;;;;1.60;1.17;;;;;;;29.94;42.90;97668.42;1649844;86;27627;-79
2022/06/12 09:21:35;;;;;;;1.55;1.12;;;;;;;30.26;42.28;97663.69;1649361;86;25793;-77
2022/06/12 09:24:29;;;;;;;1.92;1.02;;;;;;;30.35;41.43;97662.25;1619570;88;25946;-79
2022/06/12 09:27:04;;;;;;;4.33;1.02;;;;;;;30.43;40.95;97660.81;1620552;87;26211;-77
2022/06/12 09:29:56;;;;;;;2.27;1.02;;;;;;;30.53;40.36;97661.62;1617902;88;25770;-81
2022/06/12 09:32:46;;;;;;;2.10;1.12;;;;;;;30.66;40.52;97660.61;1592237;90;27478;-82
2022/06/12 09:35:35;;;;;;;1.62;1.05;;;;;;;30.71;39.98;97660.39;1572850;91;25772;-76
2022/06/12 09:38:37;;;;;;;5.08;1.00;;;;;;;30.73;39.40;97648.34;1572861;90;25295;-76
2022/06/12 09:41:22;;;;;;;3.37;1.00;;;;;;;30.52;38.42;97648.84;1572525;91;25884;-80
2022/06/12 09:44:20;;;;;;;5.42;1.02;;;;;;;30.58;38.43;97648.91;1600430;87;25925;-77
2022/06/12 09:46:55;;;;;;;2.55;0.85;;;;;;;30.48;38.09;97651.47;1618803;88;28424;-79
2022/06/12 09:49:49;;;;;;;6.72;1.30;;;;;;;30.57;38.02;97641.70;1616893;88;26560;-77
2022/06/12 09:53:02;;;;;;;1.40;1.10;;;;;;;30.41;37.53;97633.91;1618820;87;26248;-82
2022/06/12 09:55:40;;;;;;;1.22;1.10;;;;;;;30.48;37.34;97640.91;1624314;87;25775;-78
2022/06/12 09:58:26;;;;;;;2.10;1.30;;;;;;;30.14;37.06;97637.69;1494496;94;25899;-78
2022/06/12 10:01:13;;;;;;;2.77;1.57;;;;;;;30.13;37.82;97634.66;1491046;95;28348;-77
2022/06/12 10:04:02;;;;;;;2.10;1.10;;;;;;;30.23;37.76;97630.93;1494713;95;25924;-81
2022/06/12 10:06:42;;;;;;;3.52;1.25;;;;;;;30.16;37.24;97634.82;1493106;95;25948;-76
2022/06/12 10:09:20;;;;;;;1.30;1.20;;;;;;;30.22;37.34;97638.22;1473935;95;25936;-77
2022/06/12 10:11:58;;;;;;;2.55;1.02;;;;;;;30.34;37.24;97630.80;1473558;97;25894;-77
2022/06/12 10:14:42;;;;;;;2.22;1.20;;;;;;;30.34;36.44;97625.23;1476109;97;27513;-82
2022/06/12 10:17:32;;;;;;;1.95;0.95;;;;;;;30.20;36.46;97626.59;1476077;95;25971;-77
2022/06/12 10:20:19;;;;;;;2.85;1.20;;;;;;;30.07;36.58;97614.53;1482710;93;26631;-76
2022/06/12 10:22:51;;;;;;;3.55;1.30;;;;;;;30.00;35.96;97616.45;1500593;92;45118;-81
2022/06/12 10:25:33;;;;;;;3.80;1.40;;;;;;;30.04;36.34;97610.47;1541052;92;25841;-80
2022/06/12 10:28:07;;;;;;;2.35;1.10;;;;;;;30.15;36.42;97599.78;1553887;91;27524;-80
2022/06/12 10:30:42;;;;;;;1.82;1.10;;;;;;;30.11;36.34;97609.13;1483021;95;26006;-77
2022/06/12 10:33:26;;;;;;;2.98;1.42;;;;;;;30.02;35.68;97606.38;1483328;95;26533;-77
2022/06/12 10:36:00;;;;;;;2.70;1.30;;;;;;;29.56;35.94;97606.55;1525794;91;25816;-77
2022/06/12 10:38:32;;;;;;;4.60;1.30;;;;;;;29.58;36.31;97599.27;1565728;90;25830;-81
2022/06/12 10:41:06;;;;;;;2.25;1.30;;;;;;;29.55;36.84;97602.13;1565450;90;27565;-76
2022/06/12 10:43:39;;;;;;;1.75;1.02;;;;;;;29.58;36.98;97597.31;1547629;92;25419;-76
2022/06/12 10:46:27;;;;;;;3.37;1.50;;;;;;;29.64;36.89;97595.97;1550233;92;25878;-76
2022/06/12 10:49:16;;;;;;;1.27;1.15;;;;;;;29.69;36.03;97594.42;1534583;93;26277;-79
2022/06/12 10:51:45;;;;;;;1.98;1.50;;;;;;;29.58;36.15;97590.35;1534692;92;25863;-76
2022/06/12 10:54:17;;;;;;;1.82;1.17;;;;;;;29.66;36.36;97589.51;1550770;90;28181;-77
2022/06/12 10:56:52;;;;;;;;;;;;;;;29.64;35.19;97587.63;1587969;90;25869;-76
2022/06/12 10:59:44;;;;;;;2.42;1.30;;;;;;;29.64;35.65;97588.20;1582601;90;25934;-76
2022/06/12 11:02:31;;;;;;;;;;;;;;;29.76;35.94;97584.16;1585101;90;25864;-77
2022/06/12 11:05:09;;;;;;;4.35;1.30;;;;;;;29.86;35.24;97578.23;1582858;90;25818;-77
2022/06/12 11:08:08;;;;;;;1.52;1.10;;;;;;;29.91;35.84;97571.11;1582629;90;27465;-81
2022/06/12 11:10:52;;;;;;;2.50;1.25;;;;;;;30.08;35.95;97575.80;1579672;90;25859;-78
2022/06/12 11:13:48;;;;;;;2.90;1.60;;;;;;;30.15;35.84;97573.91;1567923;91;25941;-78
2022/06/12 11:16:48;;;;;;;2.33;1.35;;;;;;;30.04;34.91;97576.25;1565355;91;25872;-76
2022/06/12 11:19:49;;;;;;;2.65;1.42;;;;;;;30.02;35.50;97574.37;1568322;91;25798;-78
2022/06/12 11:22:33;;;;;;;1.95;1.20;;;;;;;30.05;35.40;97572.31;1546117;92;27583;-78
2022/06/12 11:25:23;;;;;;;2.37;1.42;;;;;;;30.05;35.36;97563.97;1544409;91;25872;-78
2022/06/12 11:28:13;;;;;;;1.77;1.40;;;;;;;29.86;34.71;97564.89;1525688;92;25818;-79
2022/06/12 11:31:03;;;;;;;1.55;1.40;;;;;;;29.84;34.86;97561.05;1592049;90;25822;-79
2022/06/12 11:33:48;;;;;;;2.37;1.25;;;;;;;29.69;33.60;97565.78;1566747;91;25885;-78
2022/06/12 11:36:42;;;;;;;2.92;1.20;;;;;;;29.49;35.08;97564.50;1565599;90;27656;-78
2022/06/12 11:39:31;;;;;;;1.50;1.00;;;;;;;29.56;35.10;97560.66;1566649;90;25848;-79
2022/06/12 11:42:20;;;;;;;2.08;1.30;;;;;;;29.55;34.80;97558.20;1597243;88;25787;-80
2022/06/12 11:45:07;;;;;;;2.77;1.20;;;;;;;29.60;34.68;97554.66;1589764;89;25759;-79
2022/06/12 11:48:09;;;;;;;2.42;1.20;;;;;;;29.54;34.32;97550.44;1573785;91;26607;-80
2022/06/12 11:51:06;;;;;;;2.62;1.30;;;;;;;29.66;34.67;97556.13;1570807;90;27424;-80
2022/06/12 11:53:50;;;;;;;2.02;1.27;;;;;;;29.54;34.45;97544.88;1573714;90;25804;-78
2022/06/12 11:56:44;;;;;;;2.47;1.30;;;;;;;29.41;34.73;97549.23;1584903;88;25828;-78
2022/06/12 11:59:22;;;;;;;2.92;1.37;;;;;;;29.34;34.61;97544.94;1609413;88;26263;-79
2022/06/12 12:02:09;;;;;;;3.00;1.25;;;;;;;29.18;34.88;97537.46;1573022;90;25825;-79
2022/06/12 12:05:18;;;;;;;1.50;1.17;;;;;;;29.16;35.47;97542.53;1609987;87;27453;-78
2022/06/12 12:07:55;;;;;;;2.10;1.27;;;;;;;28.93;34.69;97537.16;1641107;87;26184;-79
2022/06/12 12:10:43;;;;;;;5.20;1.50;;;;;;;28.86;35.49;97531.25;1724075;80;25854;-81
2022/06/12 12:13:20;;;;;;;5.12;1.40;;;;;;;28.98;35.63;97531.41;1792152;80;25659;-82
2022/06/12 12:15:54;;;;;;;4.15;1.60;;;;;;;29.09;35.85;97529.14;1740672;82;25706;-78
2022/06/12 12:18:42;;;;;;;1.70;1.30;;;;;;;29.11;35.44;97527.39;1792980;79;28182;-79
2022/06/12 12:21:41;;;;;;;1.90;1.17;;;;;;;28.94;35.10;97526.86;1733518;82;25819;-77
2022/06/12 12:24:12;;;;;;;2.15;1.07;;;;;;;28.62;34.50;97514.22;1715832;83;25831;-78
2022/06/12 12:26:41;;;;;;;;;;;;;;;28.44;35.73;97509.80;1710302;83;26144;-77
2022/06/12 12:29:12;;;;;;;2.20;1.25;;;;;;;28.61;34.35;97507.05;1701527;83;26288;-80
2022/06/12 12:31:39;;;;;;;3.50;1.40;;;;;;;28.66;35.82;97506.88;1672906;84;28291;-79